createdAt,value
2023-05-21T00:00:48.921Z,100391.41
2023-05-21T00:04:01.776Z,100385.59
2023-05-21T00:07:15.404Z,100383.53
2023-05-21T00:10:28.154Z,100378.59
2023-05-21T00:13:40.539Z,100388.22
2023-05-21T00:16:53.227Z,100391.31
2023-05-21T00:20:07.452Z,100384.09
2023-05-21T00:23:21.541Z,100386.03
2023-05-21T00:26:34.137Z,100390.31
2023-05-21T00:29:47.273Z,100396.13
2023-05-21T00:33:02.543Z,100395.19
2023-05-21T00:36:15.626Z,100390.97
2023-05-21T00:39:28.418Z,100382.38
2023-05-21T00:42:41.650Z,100381.69
2023-05-21T00:45:56.362Z,100377.91
2023-05-21T00:49:09.149Z,100380.41
2023-05-21T00:52:21.680Z,100379.41
2023-05-21T00:55:34.560Z,100369.75
2023-05-21T00:58:47.975Z,100364.16
2023-05-21T01:02:05.541Z,100368.63
2023-05-21T01:05:18.071Z,100363.47
2023-05-21T01:08:30.785Z,100363.59
2023-05-21T01:11:45.102Z,100370.69
2023-05-21T01:14:59.663Z,100369.41
2023-05-21T01:18:12.289Z,100368.16
2023-05-21T01:21:25.340Z,100364.22
2023-05-21T01:24:38.039Z,100360.31
2023-05-21T01:27:51.236Z,100356.41
2023-05-21T01:31:19.673Z,100357.69
2023-05-21T01:34:42.552Z,100364.72
2023-05-21T01:38:16.717Z,100370.78
2023-05-21T01:41:29.965Z,100371.06
2023-05-21T01:44:42.370Z,100367.00
2023-05-21T01:47:55.278Z,100361.75
2023-05-21T01:51:07.768Z,100363.78
2023-05-21T01:54:22.033Z,100357.09
2023-05-21T01:57:34.442Z,100351.72
2023-05-21T02:00:47.209Z,100351.06
2023-05-21T02:04:00.072Z,100352.00
2023-05-21T02:07:14.562Z,100359.13
2023-05-21T02:10:27.325Z,100362.69
2023-05-21T02:13:42.665Z,100356.84
2023-05-21T02:16:55.821Z,100353.91
2023-05-21T02:20:12.043Z,100356.75
2023-05-21T02:23:25.317Z,100354.03
2023-05-21T02:26:37.769Z,100350.19
2023-05-21T02:29:50.475Z,100352.44
2023-05-21T02:33:02.981Z,100354.28
2023-05-21T02:36:19.043Z,100360.62
2023-05-21T02:39:31.524Z,100370.47
2023-05-21T02:42:44.274Z,100366.75
2023-05-21T02:45:57.454Z,100362.53
2023-05-21T02:49:10.831Z,100353.31
2023-05-21T02:52:24.182Z,100352.16
2023-05-21T02:55:37.364Z,100348.94
2023-05-21T02:58:49.893Z,100350.25
2023-05-21T03:02:02.776Z,100352.47
2023-05-21T03:05:15.390Z,100340.19
2023-05-21T03:08:28.210Z,100348.06
2023-05-21T03:11:41.028Z,100352.16
2023-05-21T03:14:53.673Z,100333.50
2023-05-21T03:18:06.228Z,100334.34
2023-05-21T03:21:22.664Z,100332.44
2023-05-21T03:24:35.344Z,100339.63
2023-05-21T03:27:48.922Z,100339.56
2023-05-21T03:31:05.870Z,100333.09
2023-05-21T03:34:20.549Z,100335.13
2023-05-21T03:37:33.583Z,100338.13
2023-05-21T03:40:46.540Z,100343.84
2023-05-21T03:43:58.979Z,100354.84
2023-05-21T03:47:12.666Z,100358.31
2023-05-21T03:50:25.094Z,100357.84
2023-05-21T03:53:37.814Z,100361.31
2023-05-21T03:56:50.957Z,100366.56
2023-05-21T04:00:06.354Z,100363.47
2023-05-21T04:03:28.197Z,100374.34
2023-05-21T04:06:42.418Z,100377.00
2023-05-21T04:09:55.124Z,100377.56
2023-05-21T04:13:07.823Z,100379.72
2023-05-21T04:16:20.269Z,100382.59
2023-05-21T04:19:33.219Z,100377.56
2023-05-21T04:22:45.815Z,100380.19
2023-05-21T04:25:59.092Z,100377.34
2023-05-21T04:29:11.570Z,100377.78
2023-05-21T04:32:24.580Z,100366.47
2023-05-21T04:35:37.151Z,100356.84
2023-05-21T04:38:50.099Z,100363.38
2023-05-21T04:42:03.415Z,100369.19
2023-05-21T04:45:17.738Z,100366.53
2023-05-21T04:48:30.728Z,100369.06
2023-05-21T04:51:43.384Z,100362.06
2023-05-21T04:54:55.760Z,100371.09
2023-05-21T04:58:10.918Z,100367.16
2023-05-21T05:01:23.865Z,100363.69
2023-05-21T05:04:36.675Z,100367.44
2023-05-21T05:07:49.251Z,100366.37
2023-05-21T05:11:02.436Z,100379.37
2023-05-21T05:14:14.822Z,100379.63
2023-05-21T05:17:27.748Z,100374.97
2023-05-21T05:20:40.229Z,100374.97
2023-05-21T05:23:52.945Z,100373.06
2023-05-21T05:27:06.777Z,100371.25
2023-05-21T05:30:20.385Z,100370.28
2023-05-21T05:33:32.996Z,100372.91
2023-05-21T05:36:45.753Z,100370.50
2023-05-21T05:39:58.264Z,100371.16
2023-05-21T05:43:10.967Z,100370.38
2023-05-21T05:46:23.457Z,100362.97
2023-05-21T05:49:37.173Z,100366.81
2023-05-21T05:52:49.691Z,100367.03
2023-05-21T05:56:02.624Z,100367.69
2023-05-21T05:59:16.513Z,100362.84
2023-05-21T06:02:32.601Z,100359.09
2023-05-21T06:05:45.410Z,100354.91
2023-05-21T06:08:57.837Z,100350.72
2023-05-21T06:12:14.695Z,100342.25
2023-05-21T06:15:27.601Z,100344.50
2023-05-21T06:18:41.113Z,100347.03
2023-05-21T06:21:53.793Z,100348.16
2023-05-21T06:25:07.186Z,100350.91
2023-05-21T06:28:19.679Z,100349.59
2023-05-21T06:31:33.575Z,100350.97
2023-05-21T06:34:46.230Z,100344.47
2023-05-21T06:37:58.918Z,100347.94
2023-05-21T06:41:11.291Z,100339.84
2023-05-21T06:44:26.922Z,100343.84
2023-05-21T06:47:41.316Z,100346.81
2023-05-21T06:50:54.172Z,100353.69
2023-05-21T06:54:07.496Z,100343.66
2023-05-21T06:57:20.956Z,100339.00
2023-05-21T07:00:33.498Z,100342.25
2023-05-21T07:03:46.285Z,100338.59
2023-05-21T07:06:58.772Z,100342.31
2023-05-21T07:10:11.475Z,100322.44
2023-05-21T07:13:23.935Z,100335.47
2023-05-21T07:16:36.776Z,100333.91
2023-05-21T07:19:49.246Z,100328.09
2023-05-21T07:23:02.009Z,100330.28
2023-05-21T07:26:14.399Z,100325.53
2023-05-21T07:29:27.540Z,100324.50
2023-05-21T07:32:40.169Z,100313.88
2023-05-21T07:35:52.989Z,100314.91
2023-05-21T07:39:06.056Z,100326.09
2023-05-21T07:42:19.121Z,100316.50
2023-05-21T07:45:31.684Z,100320.75
2023-05-21T07:48:44.598Z,100314.94
2023-05-21T07:51:57.378Z,100317.81
2023-05-21T07:55:10.382Z,100317.06
2023-05-21T07:58:23.617Z,100321.28
2023-05-21T08:01:37.677Z,100314.34
2023-05-21T08:04:50.430Z,100324.16
2023-05-21T08:08:02.863Z,100322.75
2023-05-21T08:11:15.760Z,100321.69
2023-05-21T08:14:28.557Z,100315.31
2023-05-21T08:17:41.914Z,100315.91
2023-05-21T08:20:55.873Z,100313.09
2023-05-21T08:24:08.947Z,100319.47
2023-05-21T08:27:21.376Z,100321.81
2023-05-21T08:30:34.764Z,100318.53
2023-05-21T08:33:53.707Z,100314.22
2023-05-21T08:37:06.799Z,100313.94
2023-05-21T08:40:26.794Z,100314.22
2023-05-21T08:43:39.724Z,100311.56
2023-05-21T08:46:52.228Z,100314.97
2023-05-21T08:50:05.314Z,100304.13
2023-05-21T08:53:27.528Z,100310.81
2023-05-21T08:56:45.769Z,100309.84
2023-05-21T08:59:59.327Z,100306.81
2023-05-21T09:03:13.741Z,100312.56
2023-05-21T09:06:26.471Z,100306.88
2023-05-21T09:10:05.228Z,100309.84
2023-05-21T09:13:18.570Z,100305.06
2023-05-21T09:16:31.710Z,100306.97
2023-05-21T09:20:18.960Z,100302.50
2023-05-21T09:23:31.681Z,100303.47
2023-05-21T09:26:44.346Z,100302.66
2023-05-21T09:29:58.069Z,100317.34
2023-05-21T09:33:11.970Z,100307.56
2023-05-21T09:36:24.876Z,100307.50
2023-05-21T09:39:37.320Z,100298.22
2023-05-21T09:42:54.248Z,100298.34
2023-05-21T09:46:06.488Z,100297.50
2023-05-21T09:49:26.416Z,100294.09
2023-05-21T09:52:41.904Z,100295.00
2023-05-21T09:55:56.577Z,100291.03
2023-05-21T09:59:08.963Z,100285.94
2023-05-21T10:02:22.717Z,100284.00
2023-05-21T10:05:35.725Z,100285.97
2023-05-21T10:08:48.720Z,100279.91
2023-05-21T10:12:01.430Z,100286.81
2023-05-21T10:15:17.539Z,100267.63
2023-05-21T10:18:30.837Z,100269.41
2023-05-21T10:21:43.631Z,100265.84
2023-05-21T10:24:56.306Z,100274.97
2023-05-21T10:28:08.694Z,100272.06
2023-05-21T10:31:21.369Z,100266.16
2023-05-21T10:34:33.751Z,100270.00
2023-05-21T10:37:46.691Z,100272.66
2023-05-21T10:40:59.182Z,100275.13
2023-05-21T10:44:36.840Z,100265.59
2023-05-21T10:48:27.215Z,100265.13
2023-05-21T10:51:42.836Z,100260.72
2023-05-21T10:55:11.884Z,100265.78
2023-05-21T10:58:39.854Z,100262.69
2023-05-21T11:01:55.401Z,100254.88
2023-05-21T11:05:08.245Z,100254.78
2023-05-21T11:08:27.657Z,100257.78
2023-05-21T11:11:53.995Z,100252.94
2023-05-21T11:15:07.093Z,100249.59
2023-05-21T11:18:19.785Z,100252.16
2023-05-21T11:21:33.981Z,100241.63
2023-05-21T11:24:47.761Z,100246.31
2023-05-21T11:28:05.862Z,100241.97
2023-05-21T11:31:24.486Z,100251.75
2023-05-21T11:34:46.591Z,100244.25
2023-05-21T11:37:59.239Z,100235.97
2023-05-21T11:41:11.644Z,100234.69
2023-05-21T11:44:50.851Z,100234.59
2023-05-21T11:48:03.419Z,100232.16
2023-05-21T11:51:16.122Z,100223.31
2023-05-21T11:54:33.987Z,100231.38
2023-05-21T11:57:48.113Z,100219.56
2023-05-21T12:01:00.757Z,100221.59
2023-05-21T12:04:13.523Z,100218.44
2023-05-21T12:07:32.153Z,100209.63
2023-05-21T12:10:46.202Z,100209.47
2023-05-21T12:13:58.717Z,100205.53
2023-05-21T12:17:13.528Z,100197.16
2023-05-21T12:20:27.137Z,100195.56
2023-05-21T12:23:39.815Z,100196.63
2023-05-21T12:26:52.204Z,100197.91
2023-05-21T12:30:05.339Z,100187.62
2023-05-21T12:33:18.478Z,100194.47
2023-05-21T12:36:34.253Z,100196.34
2023-05-21T12:39:47.600Z,100202.16
2023-05-21T12:43:00.399Z,100188.06
2023-05-21T12:46:17.416Z,100181.59
2023-05-21T12:49:38.793Z,100182.28
2023-05-21T12:52:54.735Z,100183.88
2023-05-21T12:56:16.610Z,100178.91
2023-05-21T12:59:28.957Z,100181.47
2023-05-21T13:02:42.387Z,100166.66
2023-05-21T13:06:01.486Z,100160.16
2023-05-21T13:09:14.189Z,100156.06
2023-05-21T13:12:28.476Z,100158.75
2023-05-21T13:15:41.220Z,100157.03
2023-05-21T13:18:53.669Z,100149.16
2023-05-21T13:22:07.287Z,100151.38
2023-05-21T13:25:21.518Z,100146.66
2023-05-21T13:28:34.387Z,100136.38
2023-05-21T13:31:46.777Z,100138.78
2023-05-21T13:34:59.420Z,100140.12
2023-05-21T13:38:11.799Z,100129.25
2023-05-21T13:41:24.462Z,100136.00
2023-05-21T13:44:36.804Z,100128.47
2023-05-21T13:47:49.559Z,100121.66
2023-05-21T13:51:01.962Z,100123.84
2023-05-21T13:54:15.805Z,100119.25
2023-05-21T13:57:30.730Z,100128.94
2023-05-21T14:00:43.592Z,100127.25
2023-05-21T14:03:56.298Z,100115.63
2023-05-21T14:07:08.815Z,100123.56
2023-05-21T14:10:21.543Z,100119.16
2023-05-21T14:13:33.879Z,100124.56
2023-05-21T14:16:47.356Z,100116.88
2023-05-21T14:19:59.826Z,100112.28
2023-05-21T14:23:12.564Z,100111.63
2023-05-21T14:26:27.608Z,100115.75
2023-05-21T14:29:41.677Z,100115.34
2023-05-21T14:32:56.619Z,100115.37
2023-05-21T14:36:10.658Z,100109.81
2023-05-21T14:39:23.175Z,100101.59
2023-05-21T14:42:35.877Z,100106.75
2023-05-21T14:45:49.708Z,100103.06
2023-05-21T14:49:03.780Z,100099.94
2023-05-21T14:52:16.168Z,100096.75
2023-05-21T14:55:29.676Z,100094.28
2023-05-21T14:58:42.144Z,100089.78
2023-05-21T15:01:54.966Z,100086.44
2023-05-21T15:05:10.485Z,100091.09
2023-05-21T15:08:23.170Z,100072.19
2023-05-21T15:11:36.006Z,100079.59
2023-05-21T15:14:50.964Z,100086.84
2023-05-21T15:18:03.462Z,100085.97
2023-05-21T15:21:16.220Z,100083.50
2023-05-21T15:24:28.680Z,100087.69
2023-05-21T15:27:41.385Z,100082.88
2023-05-21T15:30:53.787Z,100082.44
2023-05-21T15:34:06.507Z,100077.78
2023-05-21T15:37:19.171Z,100085.66
2023-05-21T15:40:32.325Z,100084.66
2023-05-21T15:43:46.206Z,100086.84
2023-05-21T15:46:58.921Z,100083.44
2023-05-21T15:50:12.209Z,100075.69
2023-05-21T15:53:24.931Z,100086.34
2023-05-21T15:56:37.396Z,100082.38
2023-05-21T15:59:50.788Z,100083.16
2023-05-21T16:03:03.311Z,100073.47
2023-05-21T16:06:16.183Z,100090.97
2023-05-21T16:09:28.575Z,100082.53
2023-05-21T16:12:41.214Z,100077.25
2023-05-21T16:15:53.610Z,100082.81
2023-05-21T16:19:06.409Z,100073.16
2023-05-21T16:22:20.818Z,100078.22
2023-05-21T16:25:35.719Z,100082.28
2023-05-21T16:28:48.509Z,100081.78
2023-05-21T16:32:01.243Z,100086.19
2023-05-21T16:35:13.772Z,100084.87
2023-05-21T16:38:26.465Z,100077.47
2023-05-21T16:41:38.830Z,100083.03
2023-05-21T16:44:51.929Z,100080.56
2023-05-21T16:48:04.710Z,100088.69
2023-05-21T16:51:17.478Z,100086.50
2023-05-21T16:54:29.892Z,100086.47
2023-05-21T16:57:42.550Z,100090.03
2023-05-21T17:00:54.946Z,100088.37
2023-05-21T17:04:07.773Z,100095.22
2023-05-21T17:07:20.407Z,100100.06
2023-05-21T17:10:33.927Z,100096.88
2023-05-21T17:13:48.137Z,100105.53
2023-05-21T17:17:00.919Z,100102.06
2023-05-21T17:20:13.540Z,100105.34
2023-05-21T17:23:26.231Z,100101.91
2023-05-21T17:26:38.650Z,100112.84
2023-05-21T17:29:52.546Z,100112.75
2023-05-21T17:33:06.535Z,100109.78
2023-05-21T17:36:19.414Z,100106.00
2023-05-21T17:39:31.848Z,100107.16
2023-05-21T17:42:44.530Z,100109.19
2023-05-21T17:45:56.917Z,100105.03
2023-05-21T17:49:09.637Z,100106.44
2023-05-21T17:52:22.065Z,100110.91
2023-05-21T17:55:34.772Z,100102.97
2023-05-21T17:58:47.273Z,100101.00
2023-05-21T18:02:01.645Z,100095.13
2023-05-21T18:05:14.547Z,100092.88
2023-05-21T18:08:27.079Z,100088.00
2023-05-21T18:11:39.727Z,100092.31
2023-05-21T18:14:52.110Z,100089.47
2023-05-21T18:18:04.881Z,100088.88
2023-05-21T18:21:17.505Z,100091.44
2023-05-21T18:24:30.237Z,100087.47
2023-05-21T18:27:42.686Z,100094.81
2023-05-21T18:30:57.053Z,100093.97
2023-05-21T18:34:09.607Z,100097.00
2023-05-21T18:37:22.362Z,100093.84
2023-05-21T18:40:35.076Z,100099.66
2023-05-21T18:43:47.876Z,100104.59
2023-05-21T18:47:00.338Z,100097.75
2023-05-21T18:50:14.276Z,100105.19
2023-05-21T18:53:26.752Z,100102.75
2023-05-21T18:56:39.460Z,100094.41
2023-05-21T18:59:51.873Z,100097.06
2023-05-21T19:03:04.617Z,100111.44
2023-05-21T19:06:17.125Z,100107.31
2023-05-21T19:09:29.832Z,100123.00
2023-05-21T19:12:43.480Z,100122.50
2023-05-21T19:15:57.426Z,100125.16
2023-05-21T19:19:09.978Z,100123.31
2023-05-21T19:22:26.314Z,100123.84
2023-05-21T19:25:38.795Z,100124.91
2023-05-21T19:28:53.821Z,100120.91
2023-05-21T19:32:07.015Z,100131.47
2023-05-21T19:35:20.640Z,100130.62
2023-05-21T19:38:33.065Z,100130.09
2023-05-21T19:41:45.747Z,100135.87
2023-05-21T19:44:58.217Z,100127.38
2023-05-21T19:48:11.136Z,100133.09
2023-05-21T19:51:23.530Z,100133.62
2023-05-21T19:54:36.405Z,100135.44
2023-05-21T19:57:48.962Z,100135.72
2023-05-21T20:01:03.490Z,100138.38
2023-05-21T20:04:16.342Z,100136.69
2023-05-21T20:07:28.851Z,100143.00
2023-05-21T20:10:41.698Z,100140.28
2023-05-21T20:13:54.388Z,100135.47
2023-05-21T20:17:07.365Z,100142.78
2023-05-21T20:20:22.991Z,100141.13
2023-05-21T20:23:35.764Z,100143.72
2023-05-21T20:26:48.175Z,100136.81
2023-05-21T20:30:00.961Z,100132.56
2023-05-21T20:33:13.638Z,100142.84
2023-05-21T20:36:27.214Z,100137.25
2023-05-21T20:39:39.712Z,100129.28
2023-05-21T20:42:54.088Z,100139.84
2023-05-21T20:46:06.494Z,100128.97
2023-05-21T20:49:19.286Z,100132.97
2023-05-21T20:52:31.753Z,100136.03
2023-05-21T20:55:47.040Z,100133.28
2023-05-21T20:58:59.625Z,100138.19
2023-05-21T21:02:12.994Z,100139.84
2023-05-21T21:05:25.431Z,100131.59
2023-05-21T21:08:40.330Z,100137.44
2023-05-21T21:11:52.840Z,100133.34
2023-05-21T21:15:06.119Z,100129.56
2023-05-21T21:18:18.513Z,100128.47
2023-05-21T21:21:31.854Z,100154.78
2023-05-21T21:24:44.549Z,100158.97
2023-05-21T21:27:57.235Z,100153.19
2023-05-21T21:31:09.650Z,100151.41
2023-05-21T21:34:24.301Z,100154.44
2023-05-21T21:37:36.771Z,100155.66
2023-05-21T21:40:49.566Z,100149.75
2023-05-21T21:44:02.127Z,100155.87
2023-05-21T21:47:14.829Z,100168.91
2023-05-21T21:50:27.284Z,100159.91
2023-05-21T21:53:39.996Z,100174.19
2023-05-21T21:56:52.364Z,100184.31
2023-05-21T22:00:17.029Z,100190.94
2023-05-21T22:03:34.559Z,100187.06
2023-05-21T22:06:46.923Z,100191.09
2023-05-21T22:09:59.569Z,100184.84
2023-05-21T22:13:12.868Z,100177.69
2023-05-21T22:16:25.557Z,100171.50
2023-05-21T22:19:37.938Z,100178.47
2023-05-21T22:22:50.606Z,100179.66
2023-05-21T22:26:03.392Z,100176.94
2023-05-21T22:29:16.097Z,100174.88
2023-05-21T22:32:28.465Z,100170.88
2023-05-21T22:35:41.175Z,100177.25
2023-05-21T22:38:53.641Z,100172.37
2023-05-21T22:42:06.480Z,100168.78
2023-05-21T22:45:19.378Z,100171.56
2023-05-21T22:48:32.106Z,100175.69
2023-05-21T22:51:45.013Z,100174.28
2023-05-21T22:54:58.805Z,100168.25
2023-05-21T22:58:11.216Z,100166.84
2023-05-21T23:01:24.057Z,100171.63
2023-05-21T23:04:43.827Z,100171.97
2023-05-21T23:07:56.851Z,100173.22
2023-05-21T23:11:09.215Z,100172.75
2023-05-21T23:14:22.091Z,100166.66
2023-05-21T23:17:34.608Z,100163.03
2023-05-21T23:20:47.382Z,100153.88
2023-05-21T23:23:59.730Z,100154.91
2023-05-21T23:27:12.441Z,100155.44
2023-05-21T23:30:24.841Z,100161.56
2023-05-21T23:33:37.575Z,100150.47
2023-05-21T23:36:49.979Z,100148.41
2023-05-21T23:40:02.650Z,100144.12
2023-05-21T23:43:15.165Z,100143.78
2023-05-21T23:46:27.915Z,100140.22
2023-05-21T23:49:40.399Z,100144.50
2023-05-21T23:52:53.327Z,100144.12
2023-05-21T23:56:06.020Z,100150.25
2023-05-21T23:59:18.779Z,100151.63
